Time;durP1;ratioP1;P1;durP2;ratioP2;P2;SDS_P1;SDS_P2;PMS_P1;PMS_P2;Temp;Humidity;BMP_temperature;BMP_pressure;BME280_temperature;BME280_humidity;BME280_pressure;Samples;Min_cycle;Max_cycle;Signal;HPM_P1;HPM_P2
2023/05/07 00:00:01;;;;;;;24.58;18.92;;;13.30;99.90;;;;;;5055321;28;20039;-80
2023/05/07 00:02:26;;;;;;;25.27;20.08;;;13.30;99.90;;;;;;5037964;28;20036;-81
2023/05/07 00:04:52;;;;;;;23.30;19.02;;;13.30;99.90;;;;;;5054965;28;20091;-81
2023/05/07 00:07:18;;;;;;;27.42;21.50;;;13.30;99.90;;;;;;5038398;28;20114;-80
2023/05/07 00:09:44;;;;;;;24.27;20.02;;;13.20;99.90;;;;;;5055307;28;20575;-81
2023/05/07 00:12:10;;;;;;;28.45;21.10;;;13.20;99.90;;;;;;5038675;28;20044;-80
2023/05/07 00:14:36;;;;;;;27.67;20.40;;;13.20;99.90;;;;;;5051981;28;20036;-80
2023/05/07 00:17:02;;;;;;;24.92;19.45;;;13.20;99.90;;;;;;5037818;28;20450;-80
2023/05/07 00:19:27;;;;;;;25.00;20.75;;;13.10;99.90;;;;;;5054625;28;20068;-80
2023/05/07 00:21:54;;;;;;;31.08;21.17;;;13.10;99.90;;;;;;5054918;28;20041;-81
2023/05/07 00:24:20;;;;;;;26.42;20.52;;;13.10;99.90;;;;;;5038154;28;20040;-80
2023/05/07 00:26:45;;;;;;;26.35;20.90;;;13.10;99.90;;;;;;5055031;28;20086;-80
2023/05/07 00:29:11;;;;;;;27.80;21.48;;;13.10;99.90;;;;;;5052091;28;20040;-80
2023/05/07 00:31:37;;;;;;;27.52;21.65;;;13.00;99.90;;;;;;5021230;28;20127;-81
2023/05/07 00:34:02;;;;;;;26.58;21.23;;;13.00;99.90;;;;;;5053962;28;20090;-80
2023/05/07 00:36:28;;;;;;;28.20;22.25;;;13.00;99.90;;;;;;5054307;28;20032;-80
2023/05/07 00:38:55;;;;;;;29.30;21.63;;;12.90;99.90;;;;;;5037643;28;20572;-81
2023/05/07 00:41:21;;;;;;;29.02;21.83;;;12.90;99.90;;;;;;5052343;28;20052;-80
2023/05/07 00:43:47;;;;;;;25.88;21.80;;;12.90;99.90;;;;;;5037354;28;20098;-80
2023/05/07 00:46:13;;;;;;;29.83;22.13;;;12.80;99.90;;;;;;5053731;28;20119;-80
2023/05/07 00:48:40;;;;;;;28.33;21.63;;;12.80;99.90;;;;;;5037849;28;20068;-80
2023/05/07 00:51:05;;;;;;;26.55;21.05;;;12.80;99.90;;;;;;5037824;28;20443;-81
2023/05/07 00:53:31;;;;;;;26.92;21.02;;;12.80;99.90;;;;;;5054214;28;20115;-80
2023/05/07 00:55:57;;;;;;;29.17;22.40;;;12.70;99.90;;;;;;5021085;28;20503;-80
2023/05/07 00:58:24;;;;;;;30.35;22.13;;;12.70;99.90;;;;;;5053692;28;20127;-80
2023/05/07 01:00:50;;;;;;;30.13;23.25;;;12.70;99.90;;;;;;5037099;28;20036;-80
2023/05/07 01:03:16;;;;;;;28.80;22.40;;;12.60;99.90;;;;;;5021267;28;20123;-80
2023/05/07 01:05:43;;;;;;;28.85;21.95;;;12.70;99.90;;;;;;5020540;28;20119;-80
2023/05/07 01:08:10;;;;;;;29.42;22.38;;;12.60;99.90;;;;;;5035557;28;20131;-80
2023/05/07 01:10:36;;;;;;;28.50;21.92;;;12.60;99.90;;;;;;5053270;28;20361;-81
2023/05/07 01:13:02;;;;;;;29.80;23.42;;;12.60;99.90;;;;;;5053644;28;20090;-80
2023/05/07 01:15:28;;;;;;;29.13;23.05;;;12.60;99.90;;;;;;5021536;28;20067;-80
2023/05/07 01:17:55;;;;;;;28.77;23.42;;;12.50;99.90;;;;;;5038661;28;20082;-80
2023/05/07 01:20:22;;;;;;;31.23;24.08;;;12.50;99.90;;;;;;5053100;28;20066;-80
2023/05/07 01:22:49;;;;;;;31.30;23.48;;;12.50;99.90;;;;;;5052990;28;20039;-80
2023/05/07 01:25:16;;;;;;;31.38;24.45;;;12.50;99.90;;;;;;5052227;28;20044;-80
2023/05/07 01:27:41;;;;;;;33.05;24.45;;;12.40;99.90;;;;;;5052199;28;20411;-80
2023/05/07 01:30:08;;;;;;;29.52;24.35;;;12.40;99.90;;;;;;5053684;28;20041;-80
2023/05/07 01:33:03;;;;;;;33.08;24.50;;;12.40;99.90;;;;;;5036123;28;20088;-80
2023/05/07 01:35:35;;;;;;;32.83;24.30;;;12.30;99.90;;;;;;5045605;28;20526;-80
2023/05/07 01:38:04;;;;;;;;;;;12.30;99.90;;;;;;5037017;28;20040;-80
2023/05/07 01:40:30;;;;;;;33.90;24.85;;;12.20;99.90;;;;;;5053399;28;19916;-80
2023/05/07 01:42:56;;;;;;;36.00;24.95;;;12.10;99.90;;;;;;5052798;28;20510;-80
2023/05/07 01:45:22;;;;;;;34.13;25.42;;;12.10;99.90;;;;;;5036625;28;20036;-80
2023/05/07 01:47:54;;;;;;;35.83;26.48;;;12.10;99.90;;;;;;5141291;27;1269081;-69
2023/05/07 01:50:21;;;;;;;36.20;27.15;;;12.00;99.90;;;;;;5161046;27;20043;-69
2023/05/07 01:52:49;;;;;;;35.85;25.85;;;12.10;99.90;;;;;;5145942;27;20049;-69
2023/05/07 01:55:15;;;;;;;37.17;27.08;;;12.00;99.90;;;;;;5142693;27;20046;-70
2023/05/07 01:57:40;;;;;;;36.00;26.58;;;12.00;99.90;;;;;;5142754;27;20050;-70
2023/05/07 02:00:08;;;;;;;37.72;26.80;;;12.00;99.90;;;;;;5161257;27;20106;-70
2023/05/07 02:02:34;;;;;;;34.70;26.23;;;12.00;99.90;;;;;;5162023;27;20042;-70
2023/05/07 02:05:03;;;;;;;37.65;26.60;;;12.00;99.90;;;;;;5124168;27;20099;-70
2023/05/07 02:07:29;;;;;;;36.22;26.98;;;11.90;99.90;;;;;;5145110;27;20382;-70
2023/05/07 02:09:55;;;;;;;36.30;27.40;;;12.00;99.90;;;;;;5110533;27;20106;-70
2023/05/07 02:12:21;;;;;;;39.83;28.08;;;11.90;99.90;;;;;;5143907;27;20047;-70
2023/05/07 02:14:47;;;;;;;37.40;27.67;;;11.90;99.90;;;;;;5142020;27;20501;-70
2023/05/07 02:17:13;;;;;;;39.03;28.42;;;11.90;99.90;;;;;;5126399;27;20138;-70
2023/05/07 02:19:38;;;;;;;41.20;28.80;;;11.80;99.90;;;;;;5127461;27;20066;-70
2023/05/07 02:22:04;;;;;;;40.90;29.35;;;11.80;99.90;;;;;;5146774;27;20034;-70
2023/05/07 02:24:30;;;;;;;39.22;29.83;;;11.80;99.90;;;;;;5143219;27;20031;-70
2023/05/07 02:26:55;;;;;;;41.65;29.33;;;11.80;99.90;;;;;;5141736;27;20046;-70
2023/05/07 02:29:21;;;;;;;43.35;29.95;;;11.70;99.90;;;;;;5144024;27;20043;-70
2023/05/07 02:31:50;;;;;;;41.78;30.17;;;11.70;99.90;;;;;;5160933;27;20047;-70
2023/05/07 02:34:16;;;;;;;44.17;30.20;;;11.70;99.90;;;;;;5144141;27;20170;-70
2023/05/07 02:36:43;;;;;;;44.95;30.92;;;11.70;99.90;;;;;;5160361;27;20034;-70
2023/05/07 02:39:08;;;;;;;50.08;32.38;;;11.70;99.90;;;;;;5163852;27;20060;-70
2023/05/07 02:41:34;;;;;;;48.58;32.72;;;11.70;99.90;;;;;;5142027;27;20043;-70
2023/05/07 02:44:00;;;;;;;48.38;32.88;;;11.60;99.90;;;;;;5143654;27;20069;-70
2023/05/07 02:46:26;;;;;;;47.38;31.92;;;11.60;99.90;;;;;;5163106;27;20047;-70
2023/05/07 02:48:51;;;;;;;48.75;33.38;;;11.70;99.90;;;;;;5142471;27;20126;-70
2023/05/07 02:51:22;;;;;;;47.42;32.05;;;11.60;99.90;;;;;;5143780;27;20130;-70
2023/05/07 02:53:47;;;;;;;47.83;33.20;;;11.60;99.90;;;;;;5106509;27;20043;-70
2023/05/07 02:56:13;;;;;;;55.05;33.70;;;11.60;99.90;;;;;;5144031;27;20053;-70
2023/05/07 02:58:39;;;;;;;46.92;32.70;;;11.60;99.90;;;;;;5130160;27;20036;-70
2023/05/07 03:01:06;;;;;;;53.00;33.92;;;11.60;99.90;;;;;;5133552;27;20031;-70
2023/05/07 03:03:31;;;;;;;52.35;33.63;;;11.60;99.90;;;;;;5112013;27;20038;-70
2023/05/07 03:05:57;;;;;;;52.28;33.60;;;11.60;99.90;;;;;;5112396;27;20053;-70
2023/05/07 03:08:23;;;;;;;54.63;34.00;;;11.60;99.90;;;;;;5148510;27;20035;-70
2023/05/07 03:10:49;;;;;;;48.95;33.70;;;11.60;99.90;;;;;;5128449;27;20039;-69
2023/05/07 03:13:15;;;;;;;55.35;34.40;;;11.60;99.90;;;;;;5147698;27;20067;-70
2023/05/07 03:15:40;;;;;;;53.75;34.47;;;11.60;99.90;;;;;;5113378;27;20031;-70
2023/05/07 03:18:06;;;;;;;49.50;33.88;;;11.60;99.90;;;;;;5131554;27;20031;-71
2023/05/07 03:20:32;;;;;;;51.35;33.70;;;11.60;99.90;;;;;;5127051;27;20121;-70
2023/05/07 03:22:58;;;;;;;53.03;34.15;;;11.50;99.90;;;;;;5128557;27;20195;-70
2023/05/07 03:25:23;;;;;;;53.72;34.20;;;11.50;99.90;;;;;;5127300;27;20030;-70
2023/05/07 03:27:49;;;;;;;52.22;34.35;;;11.50;99.90;;;;;;5093401;27;20051;-70
2023/05/07 03:30:15;;;;;;;53.55;34.25;;;11.50;99.90;;;;;;5132753;27;20255;-70
2023/05/07 03:32:41;;;;;;;52.17;34.42;;;11.40;99.90;;;;;;5130547;27;20038;-70
2023/05/07 03:35:07;;;;;;;51.28;33.78;;;11.40;99.90;;;;;;5112952;27;20646;-70
2023/05/07 03:37:33;;;;;;;48.83;32.45;;;11.40;99.90;;;;;;5112432;27;20039;-70
2023/05/07 03:39:58;;;;;;;51.08;33.40;;;11.40;99.90;;;;;;5148612;27;20049;-70
2023/05/07 03:42:25;;;;;;;49.30;33.20;;;11.40;99.90;;;;;;5128519;27;20168;-70
2023/05/07 03:44:51;;;;;;;46.90;33.22;;;11.40;99.90;;;;;;5110160;27;20038;-70
2023/05/07 03:47:16;;;;;;;50.63;34.58;;;11.40;99.90;;;;;;5130958;27;20050;-70
2023/05/07 03:49:42;;;;;;;46.08;32.42;;;11.40;99.90;;;;;;5125989;27;20116;-70
2023/05/07 03:52:08;;;;;;;46.75;31.80;;;11.40;99.90;;;;;;5129228;27;20118;-70
2023/05/07 03:54:33;;;;;;;48.47;31.50;;;11.40;99.90;;;;;;5130054;27;20082;-70
2023/05/07 03:56:59;;;;;;;48.28;32.33;;;11.30;99.90;;;;;;5111812;27;20473;-70
2023/05/07 03:59:25;;;;;;;48.03;34.03;;;11.30;99.90;;;;;;5127183;27;20043;-70
2023/05/07 04:01:50;;;;;;;50.75;33.28;;;11.30;99.90;;;;;;5125649;27;20126;-70
2023/05/07 04:04:16;;;;;;;49.70;32.22;;;11.30;99.90;;;;;;5110978;27;20054;-70
2023/05/07 04:06:42;;;;;;;48.08;30.67;;;11.40;99.90;;;;;;5144611;27;20038;-70
2023/05/07 04:09:08;;;;;;;47.25;33.10;;;11.40;99.90;;;;;;5146494;27;20042;-70
2023/05/07 04:11:35;;;;;;;44.83;31.70;;;11.40;99.90;;;;;;5145719;27;20047;-70
2023/05/07 04:14:01;;;;;;;47.10;32.30;;;11.40;99.90;;;;;;5126460;27;20475;-71
2023/05/07 04:16:26;;;;;;;45.47;30.88;;;11.40;99.90;;;;;;5110197;27;20087;-70
2023/05/07 04:18:52;;;;;;;50.35;32.05;;;11.40;99.90;;;;;;5128370;27;20041;-70
2023/05/07 04:21:19;;;;;;;43.50;30.23;;;11.40;99.90;;;;;;5110302;27;20142;-71
2023/05/07 04:23:47;;;;;;;43.10;30.50;;;11.40;99.90;;;;;;5144930;27;20050;-71
2023/05/07 04:26:12;;;;;;;43.63;29.45;;;11.40;99.90;;;;;;5111843;27;20166;-70
2023/05/07 04:28:39;;;;;;;40.63;29.45;;;11.40;99.90;;;;;;5113299;27;20550;-71
2023/05/07 04:31:05;;;;;;;41.28;29.65;;;11.30;99.90;;;;;;5144995;27;20050;-70
2023/05/07 04:33:31;;;;;;;43.45;29.80;;;11.30;99.90;;;;;;5112922;27;20096;-70
2023/05/07 04:36:02;;;;;;;44.08;29.80;;;11.30;99.90;;;;;;5110937;27;20042;-70
2023/05/07 04:38:31;;;;;;;44.80;30.58;;;11.40;99.90;;;;;;5144394;27;20413;-70
2023/05/07 04:41:06;;;;;;;44.45;29.98;;;11.30;99.90;;;;;;5145583;27;20438;-70
2023/05/07 04:43:32;;;;;;;42.17;28.45;;;11.40;99.90;;;;;;5096244;27;20563;-70
2023/05/07 04:45:58;;;;;;;40.38;28.85;;;11.40;99.90;;;;;;5109564;27;20145;-70
2023/05/07 04:48:23;;;;;;;40.20;29.00;;;11.40;99.90;;;;;;5127430;27;20054;-70
2023/05/07 04:50:52;;;;;;;36.97;28.53;;;11.40;99.90;;;;;;5109967;27;20038;-70
2023/05/07 04:53:18;;;;;;;39.42;28.83;;;11.40;99.90;;;;;;5148265;27;20031;-70
2023/05/07 04:55:45;;;;;;;39.45;28.08;;;11.50;99.90;;;;;;5129461;27;20128;-70
2023/05/07 04:58:11;;;;;;;39.88;28.17;;;11.40;99.90;;;;;;5125562;27;20072;-70
2023/05/07 05:00:39;;;;;;;39.67;28.75;;;11.40;99.90;;;;;;5130042;27;20043;-70
2023/05/07 05:03:06;;;;;;;36.55;27.50;;;11.50;99.90;;;;;;5148535;27;20031;-70
2023/05/07 05:05:31;;;;;;;38.28;28.60;;;11.50;99.90;;;;;;5111276;27;20107;-70
2023/05/07 05:07:57;;;;;;;39.67;26.92;;;11.50;99.90;;;;;;5146308;27;20069;-70
2023/05/07 05:10:23;;;;;;;38.92;26.67;;;11.50;99.90;;;;;;5093331;27;20924;-71
2023/05/07 05:12:48;;;;;;;35.80;27.13;;;11.50;99.90;;;;;;5129218;27;20093;-70
2023/05/07 05:15:14;;;;;;;34.72;26.25;;;11.50;99.90;;;;;;5144750;27;20037;-70
2023/05/07 05:17:40;;;;;;;31.70;24.67;;;11.50;99.90;;;;;;5127478;27;20043;-70
2023/05/07 05:20:06;;;;;;;35.03;24.75;;;11.50;99.90;;;;;;5125098;27;20136;-70
2023/05/07 05:22:32;;;;;;;34.15;25.33;;;11.50;99.90;;;;;;5077413;27;20034;-70
2023/05/07 05:24:58;;;;;;;35.28;26.23;;;11.50;99.90;;;;;;5127473;27;20050;-70
2023/05/07 05:27:24;;;;;;;34.58;26.30;;;11.50;99.90;;;;;;5128082;27;20042;-70
2023/05/07 05:29:50;;;;;;;35.72;26.13;;;11.50;99.90;;;;;;5094799;27;20054;-70
2023/05/07 05:32:15;;;;;;;32.03;24.45;;;11.50;99.90;;;;;;5107393;27;20035;-70
2023/05/07 05:34:41;;;;;;;34.25;24.75;;;11.60;99.90;;;;;;5091972;27;20072;-70
2023/05/07 05:37:07;;;;;;;33.90;25.02;;;11.60;99.90;;;;;;5109408;27;20135;-71
2023/05/07 05:39:32;;;;;;;34.58;25.25;;;11.60;99.90;;;;;;5124046;27;20055;-72
2023/05/07 05:41:58;;;;;;;33.72;25.77;;;11.50;99.90;;;;;;5126916;27;20039;-71
2023/05/07 05:44:25;;;;;;;35.85;25.80;;;11.50;99.90;;;;;;5109067;27;20031;-70
2023/05/07 05:46:50;;;;;;;37.92;26.15;;;11.60;99.90;;;;;;5126162;27;20055;-71
2023/05/07 05:49:16;;;;;;;34.45;24.85;;;11.60;99.90;;;;;;5109618;27;20085;-71
2023/05/07 05:51:42;;;;;;;36.28;26.33;;;11.60;99.90;;;;;;5130250;27;20130;-71
2023/05/07 05:54:08;;;;;;;36.50;25.88;;;11.60;99.90;;;;;;5144540;27;20117;-70
2023/05/07 05:56:34;;;;;;;34.72;25.95;;;11.60;99.90;;;;;;5113349;27;20600;-70
2023/05/07 05:58:59;;;;;;;37.85;26.42;;;11.60;99.90;;;;;;5124747;27;20047;-71
2023/05/07 06:01:25;;;;;;;34.55;24.88;;;11.60;99.90;;;;;;5095023;27;20117;-66
2023/05/07 06:03:51;;;;;;;35.38;25.40;;;11.70;99.90;;;;;;5129969;27;20053;-65
2023/05/07 06:06:17;;;;;;;35.42;26.73;;;11.70;99.90;;;;;;5126984;27;20047;-68
2023/05/07 06:08:43;;;;;;;34.40;26.58;;;11.70;99.90;;;;;;5125194;27;20492;-68
2023/05/07 06:11:08;;;;;;;38.63;27.55;;;11.80;99.90;;;;;;5140749;27;20054;-68
2023/05/07 06:13:34;;;;;;;35.30;26.25;;;11.80;99.90;;;;;;5128599;27;20081;-68
2023/05/07 06:16:00;;;;;;;38.38;25.98;;;11.90;99.90;;;;;;5107735;27;20519;-66
2023/05/07 06:18:26;;;;;;;33.17;25.25;;;12.00;99.90;;;;;;5126587;27;20078;-66
2023/05/07 06:20:52;;;;;;;33.83;25.98;;;12.00;99.90;;;;;;5125645;27;20039;-67
2023/05/07 06:23:18;;;;;;;35.25;25.38;;;12.10;99.90;;;;;;5126296;27;20046;-66
2023/05/07 06:25:50;;;;;;;33.42;25.05;;;12.10;99.90;;;;;;5129321;27;20136;-66
2023/05/07 06:28:16;;;;;;;34.92;26.10;;;12.10;99.90;;;;;;5125101;27;20152;-66
2023/05/07 06:30:42;;;;;;;32.33;24.88;;;12.10;99.90;;;;;;5125543;27;20099;-84
2023/05/07 06:33:07;;;;;;;36.00;26.35;;;12.20;99.90;;;;;;5093379;27;20053;-76
2023/05/07 06:35:33;;;;;;;32.38;25.00;;;12.20;99.90;;;;;;5124903;27;20039;-70
2023/05/07 06:38:00;;;;;;;32.28;24.75;;;12.10;99.90;;;;;;5145831;27;20058;-69
2023/05/07 06:40:26;;;;;;;36.08;27.08;;;12.10;99.90;;;;;;5110040;27;20070;-69
2023/05/07 06:42:51;;;;;;;31.38;25.67;;;12.10;99.90;;;;;;5126637;27;20046;-70
2023/05/07 06:45:17;;;;;;;34.65;26.17;;;12.10;99.90;;;;;;5109691;27;20553;-70
2023/05/07 06:47:43;;;;;;;36.35;26.50;;;12.10;99.90;;;;;;5125162;27;20056;-70
2023/05/07 06:50:09;;;;;;;36.33;25.80;;;12.00;99.90;;;;;;5125469;27;20039;-69
2023/05/07 06:52:35;;;;;;;35.53;25.80;;;12.00;99.90;;;;;;5108872;27;20027;-69
2023/05/07 06:55:01;;;;;;;35.05;26.98;;;12.00;99.90;;;;;;5089727;27;21128;-70
2023/05/07 06:57:27;;;;;;;37.00;26.02;;;11.90;99.90;;;;;;5102365;27;20090;-70
2023/05/07 06:59:52;;;;;;;35.42;26.23;;;12.00;99.90;;;;;;5112238;27;20398;-69
2023/05/07 07:02:18;;;;;;;34.03;26.40;;;12.00;99.90;;;;;;5119116;27;20044;-69
2023/05/07 07:04:44;;;;;;;35.83;26.10;;;12.00;99.90;;;;;;5121871;27;20148;-69
2023/05/07 07:07:10;;;;;;;37.30;26.95;;;12.00;99.90;;;;;;5101713;27;20044;-69
2023/05/07 07:09:36;;;;;;;40.30;28.30;;;12.10;99.90;;;;;;5104052;27;20081;-68
2023/05/07 07:12:02;;;;;;;39.78;28.33;;;12.10;99.90;;;;;;5085017;27;20031;-70
2023/05/07 07:14:27;;;;;;;39.47;27.90;;;12.10;99.90;;;;;;5122802;27;20135;-70
2023/05/07 07:16:53;;;;;;;37.80;27.63;;;12.20;99.90;;;;;;5091021;28;20051;-70
2023/05/07 07:19:20;;;;;;;37.58;27.08;;;12.20;99.90;;;;;;5081479;27;20071;-70
2023/05/07 07:21:46;;;;;;;38.97;27.70;;;12.30;99.90;;;;;;5125662;27;20465;-70
2023/05/07 07:24:12;;;;;;;39.17;28.00;;;12.40;99.90;;;;;;5120127;27;20326;-70
2023/05/07 07:26:39;;;;;;;38.97;26.63;;;12.40;99.90;;;;;;5089029;27;20266;-69
2023/05/07 07:29:06;;;;;;;39.20;26.85;;;12.50;99.90;;;;;;5116132;27;20121;-69
2023/05/07 07:31:32;;;;;;;37.85;27.75;;;12.50;99.90;;;;;;5084732;27;20588;-69
2023/05/07 07:33:58;;;;;;;37.58;27.48;;;12.60;99.90;;;;;;5118586;27;20043;-69
2023/05/07 07:36:23;;;;;;;35.38;25.95;;;12.60;99.90;;;;;;5123711;27;20068;-70
2023/05/07 07:38:49;;;;;;;36.25;26.73;;;12.70;99.90;;;;;;5103525;28;20494;-69
2023/05/07 07:41:15;;;;;;;37.42;27.65;;;12.70;99.90;;;;;;5103262;27;20045;-69
2023/05/07 07:43:40;;;;;;;37.00;26.73;;;12.60;99.90;;;;;;5120373;27;20054;-69
2023/05/07 07:46:06;;;;;;;37.22;26.52;;;12.60;99.90;;;;;;5104742;28;20040;-69
2023/05/07 07:48:32;;;;;;;35.95;25.95;;;12.70;99.90;;;;;;5104040;27;20726;-69
2023/05/07 07:50:57;;;;;;;42.13;29.95;;;12.70;99.90;;;;;;5123220;27;20138;-69
2023/05/07 07:53:23;;;;;;;37.85;27.38;;;12.70;99.90;;;;;;5125577;27;20475;-69
2023/05/07 07:55:49;;;;;;;39.88;28.52;;;12.70;99.90;;;;;;5091571;27;20642;-69
2023/05/07 07:58:14;;;;;;;36.35;27.67;;;12.80;99.90;;;;;;5108048;27;20124;-69
2023/05/07 08:00:40;;;;;;;38.78;28.02;;;12.80;99.90;;;;;;5121164;27;20043;-69
2023/05/07 08:03:09;;;;;;;36.28;27.33;;;12.90;99.90;;;;;;5124760;27;20069;-68
2023/05/07 08:05:35;;;;;;;36.08;27.33;;;12.90;99.90;;;;;;5123695;27;20078;-69
2023/05/07 08:08:01;;;;;;;38.83;28.27;;;12.90;99.90;;;;;;5112323;27;20053;-70
2023/05/07 08:10:27;;;;;;;36.47;27.58;;;13.00;99.90;;;;;;5118486;27;20075;-70
2023/05/07 08:12:53;;;;;;;38.63;27.58;;;13.00;99.90;;;;;;5106529;27;20040;-70
2023/05/07 08:15:18;;;;;;;37.55;27.08;;;13.00;99.90;;;;;;5120636;27;20046;-70
2023/05/07 08:17:44;;;;;;;37.65;27.58;;;13.10;99.90;;;;;;5125668;27;20471;-70
2023/05/07 08:20:10;;;;;;;37.08;27.48;;;13.10;99.90;;;;;;5126327;27;20038;-70
2023/05/07 08:22:36;;;;;;;34.67;25.25;;;13.20;99.90;;;;;;5107021;27;20069;-70
2023/05/07 08:25:03;;;;;;;35.83;27.25;;;13.30;99.90;;;;;;5126529;27;20040;-70
2023/05/07 08:27:29;;;;;;;36.55;25.67;;;13.30;99.90;;;;;;5107210;27;20130;-70
2023/05/07 08:29:54;;;;;;;35.47;26.75;;;13.40;99.90;;;;;;5126380;27;20083;-70
2023/05/07 08:32:21;;;;;;;35.28;26.80;;;13.40;99.90;;;;;;5094624;27;20245;-69
2023/05/07 08:34:47;;;;;;;36.95;25.45;;;13.40;99.90;;;;;;5110607;27;20518;-70
2023/05/07 08:37:13;;;;;;;33.28;25.73;;;13.40;99.90;;;;;;5128214;27;20074;-69
2023/05/07 08:39:39;;;;;;;33.72;24.88;;;13.40;99.90;;;;;;5106537;27;20047;-70
2023/05/07 08:42:05;;;;;;;33.92;25.00;;;13.50;99.90;;;;;;5109271;27;20039;-70
2023/05/07 08:44:34;;;;;;;34.50;25.98;;;13.50;99.90;;;;;;5122150;27;20115;-74
2023/05/07 08:47:02;;;;;;;33.33;25.23;;;13.60;99.90;;;;;;5127437;27;20048;-71
2023/05/07 08:49:28;;;;;;;36.35;25.40;;;13.80;99.90;;;;;;5119397;27;20063;-70
2023/05/07 08:51:55;;;;;;;34.15;25.42;;;13.90;99.90;;;;;;5130476;27;20050;-70
2023/05/07 08:54:21;;;;;;;32.20;24.23;;;14.10;99.90;;;;;;5121456;27;20750;-70
2023/05/07 08:56:48;;;;;;;32.92;24.20;;;14.20;99.90;;;;;;5100839;28;20131;-70
2023/05/07 08:59:14;;;;;;;32.08;23.85;;;14.20;99.90;;;;;;5109784;27;20062;-70
2023/05/07 09:01:39;;;;;;;28.05;22.70;;;14.20;99.90;;;;;;5101651;27;20042;-70
2023/05/07 09:04:06;;;;;;;29.20;22.25;;;14.20;99.90;;;;;;5126261;27;20089;-70
2023/05/07 09:06:33;;;;;;;34.22;24.65;;;14.20;99.90;;;;;;5098636;27;20631;-71
2023/05/07 09:09:01;;;;;;;28.33;22.85;;;14.30;99.90;;;;;;5125131;27;20054;-71
2023/05/07 09:11:27;;;;;;;29.73;23.00;;;14.40;99.90;;;;;;5119522;27;20095;-70
2023/05/07 09:13:57;;;;;;;31.58;23.67;;;14.50;99.90;;;;;;5119269;27;20051;-70
2023/05/07 09:16:24;;;;;;;28.75;23.00;;;14.70;99.90;;;;;;5117375;27;20050;-70
2023/05/07 09:18:54;;;;;;;30.95;23.45;;;14.80;99.90;;;;;;5116182;27;20035;-70
2023/05/07 09:21:22;;;;;;;27.85;21.90;;;14.90;99.90;;;;;;5119090;27;20060;-70
2023/05/07 09:23:52;;;;;;;26.85;20.95;;;15.00;99.90;;;;;;5115244;28;20067;-71
2023/05/07 09:26:20;;;;;;;25.67;21.15;;;15.10;99.90;;;;;;5118695;28;20083;-70
2023/05/07 09:28:46;;;;;;;26.13;21.05;;;15.10;99.90;;;;;;5098510;28;20121;-70
2023/05/07 09:31:12;;;;;;;26.45;21.15;;;15.00;99.90;;;;;;5116330;28;20055;-70
2023/05/07 09:33:39;;;;;;;27.25;21.42;;;15.00;99.90;;;;;;5118446;28;20035;-71
2023/05/07 09:36:07;;;;;;;26.48;21.60;;;15.10;99.90;;;;;;5116387;28;20047;-71
2023/05/07 09:38:34;;;;;;;27.55;21.38;;;15.20;99.90;;;;;;5116097;28;20077;-70
2023/05/07 09:41:05;;;;;;;27.10;21.73;;;15.30;99.90;;;;;;5114360;28;20099;-71
2023/05/07 09:43:35;;;;;;;26.58;21.65;;;15.40;99.90;;;;;;5114900;28;20044;-70
2023/05/07 09:46:07;;;;;;;27.30;20.67;;;15.50;99.90;;;;;;5099245;28;20083;-70
2023/05/07 09:48:38;;;;;;;23.67;20.13;;;15.60;99.90;;;;;;5136179;27;20059;-70
2023/05/07 09:51:11;;;;;;;25.13;20.08;;;15.60;99.90;;;;;;5103658;28;20057;-71
2023/05/07 09:53:39;;;;;;;24.92;20.33;;;15.70;99.90;;;;;;5120271;27;20047;-71
2023/05/07 09:56:05;;;;;;;26.10;20.58;;;15.70;99.90;;;;;;5126249;28;20039;-71
2023/05/07 09:58:33;;;;;;;26.63;20.88;;;15.80;99.90;;;;;;5118766;28;20047;-70
2023/05/07 10:00:58;;;;;;;25.25;20.45;;;15.80;99.90;;;;;;5119172;28;20047;-70
2023/05/07 10:03:27;;;;;;;23.90;19.85;;;16.00;99.90;;;;;;5138626;28;20088;-70
2023/05/07 10:05:54;;;;;;;20.98;18.05;;;16.10;99.90;;;;;;5116910;28;20099;-70
2023/05/07 10:08:20;;;;;;;24.38;19.95;;;16.30;99.90;;;;;;5104404;27;20035;-70
2023/05/07 10:10:46;;;;;;;24.92;20.35;;;16.40;99.90;;;;;;5122810;27;20046;-71
2023/05/07 10:13:12;;;;;;;23.50;20.10;;;16.60;99.90;;;;;;5124324;27;20044;-70
2023/05/07 10:15:38;;;;;;;24.08;20.73;;;16.60;99.90;;;;;;5107767;27;20533;-70
2023/05/07 10:18:07;;;;;;;23.65;19.77;;;16.70;99.90;;;;;;5088434;27;20055;-71
2023/05/07 10:20:36;;;;;;;21.23;18.73;;;16.90;99.90;;;;;;5107407;27;20045;-70
2023/05/07 10:23:04;;;;;;;22.83;19.65;;;17.10;99.90;;;;;;5122326;27;20383;-71
2023/05/07 10:25:32;;;;;;;25.60;21.05;;;17.20;99.90;;;;;;5142137;27;20087;-71
2023/05/07 10:28:03;;;;;;;23.60;20.25;;;17.30;99.90;;;;;;5139904;27;20047;-70
2023/05/07 10:31:10;;;;;;;24.40;19.90;;;17.40;99.90;;;;;;5123559;27;20054;-70
2023/05/07 10:33:37;;;;;;;25.13;20.27;;;17.50;99.90;;;;;;5121613;27;20386;-70
2023/05/07 10:36:05;;;;;;;22.92;19.40;;;17.40;99.90;;;;;;5111444;27;20051;-71
2023/05/07 10:38:31;;;;;;;21.85;19.40;;;17.50;99.90;;;;;;5123744;27;20039;-70
2023/05/07 10:40:57;;;;;;;22.42;20.02;;;17.60;99.90;;;;;;5110275;27;20715;-71
2023/05/07 10:43:22;;;;;;;22.80;19.33;;;17.70;99.90;;;;;;5112135;27;20050;-70
2023/05/07 10:46:17;;;;;;;24.20;19.10;;;17.80;99.90;;;;;;5087907;27;20039;-71
2023/05/07 10:49:05;;;;;;;21.92;18.90;;;17.90;99.90;;;;;;5121604;27;20047;-70
2023/05/07 10:51:35;;;;;;;21.08;18.33;;;18.10;99.90;;;;;;5123172;27;20512;-71
2023/05/07 10:54:10;;;;;;;21.48;18.83;;;18.10;99.90;;;;;;5121726;27;20487;-70
2023/05/07 10:56:40;;;;;;;23.83;19.45;;;18.10;99.90;;;;;;5105882;27;20043;-70
2023/05/07 10:59:22;;;;;;;21.65;19.02;;;18.00;99.90;;;;;;5122914;27;20481;-71
2023/05/07 11:01:55;;;;;;;22.02;19.67;;;18.00;99.90;;;;;;5121774;27;20103;-71
2023/05/07 11:04:26;;;;;;;22.13;18.98;;;17.90;99.90;;;;;;5121771;27;20557;-70
2023/05/07 11:07:08;;;;;;;22.33;19.17;;;17.80;99.90;;;;;;5121774;27;20047;-70
2023/05/07 11:09:52;;;;;;;23.20;19.70;;;17.80;99.90;;;;;;5105044;27;20039;-70
2023/05/07 11:12:40;;;;;;;24.10;19.67;;;17.70;99.90;;;;;;5122957;27;20046;-71
2023/05/07 11:15:09;;;;;;;21.10;18.35;;;17.70;99.90;;;;;;5139512;27;20039;-70
2023/05/07 11:17:56;;;;;;;22.95;20.27;;;17.70;99.90;;;;;;5122547;27;20039;-71
2023/05/07 11:20:45;;;;;;;21.60;18.67;;;17.90;99.90;;;;;;5112872;27;20043;-70
2023/05/07 11:23:38;;;;;;;23.00;19.80;;;17.90;99.90;;;;;;5120277;27;20040;-71
2023/05/07 11:26:10;;;;;;;22.10;19.35;;;17.90;99.90;;;;;;5103045;27;20043;-71
2023/05/07 11:28:40;;;;;;;23.00;20.38;;;17.90;99.90;;;;;;5140077;27;20046;-70
2023/05/07 11:31:06;;;;;;;21.83;19.25;;;18.00;99.90;;;;;;5140172;27;20074;-70
2023/05/07 11:33:32;;;;;;;21.50;19.10;;;18.10;99.90;;;;;;5122423;27;20069;-71
2023/05/07 11:35:59;;;;;;;21.42;19.23;;;18.10;99.90;;;;;;5120259;27;20466;-70
2023/05/07 11:38:25;;;;;;;22.00;19.58;;;18.00;99.90;;;;;;5122505;27;20530;-70
2023/05/07 11:40:53;;;;;;;22.27;19.88;;;17.90;99.90;;;;;;5120156;27;20055;-71
2023/05/07 11:43:19;;;;;;;22.80;20.40;;;17.90;99.90;;;;;;5140174;27;20042;-70
2023/05/07 11:45:46;;;;;;;22.00;19.33;;;18.00;99.90;;;;;;5103806;27;20066;-70
2023/05/07 11:48:13;;;;;;;22.85;19.75;;;18.10;99.90;;;;;;5139032;27;20410;-70
2023/05/07 11:50:53;;;;;;;21.98;19.77;;;18.10;99.90;;;;;;5104977;27;20592;-71
2023/05/07 11:53:20;;;;;;;22.38;19.98;;;18.20;99.90;;;;;;5120079;27;20620;-71
2023/05/07 11:55:46;;;;;;;23.08;19.75;;;18.30;99.90;;;;;;5121559;27;20111;-70
2023/05/07 11:58:20;;;;;;;22.83;20.40;;;18.40;99.90;;;;;;5120171;27;20035;-70
2023/05/07 12:00:53;;;;;;;23.02;20.20;;;18.50;99.90;;;;;;5121603;27;20114;-70
2023/05/07 12:03:19;;;;;;;22.15;19.92;;;18.80;99.90;;;;;;5140213;27;20039;-70
2023/05/07 12:05:46;;;;;;;22.52;19.30;;;18.90;99.90;;;;;;5119749;27;20047;-68
2023/05/07 12:08:19;;;;;;;21.45;19.25;;;19.20;99.90;;;;;;5140075;27;20039;-68
2023/05/07 12:10:47;;;;;;;22.05;19.75;;;19.50;99.90;;;;;;5152744;27;20039;-68
2023/05/07 12:13:20;;;;;;;21.27;19.10;;;19.70;99.90;;;;;;5121872;27;20043;-68
2023/05/07 12:15:50;;;;;;;21.50;19.20;;;19.90;99.90;;;;;;5085006;27;20046;-67
2023/05/07 12:18:16;;;;;;;21.60;19.30;;;20.10;99.90;;;;;;5120673;27;20091;-68
2023/05/07 12:20:42;;;;;;;21.02;18.38;;;20.10;99.90;;;;;;5105497;27;20047;-68
2023/05/07 12:23:08;;;;;;;21.45;19.15;;;20.10;99.90;;;;;;5121183;27;20039;-69
2023/05/07 12:25:39;;;;;;;20.88;18.73;;;20.10;99.90;;;;;;5112287;27;20066;-68
2023/05/07 12:28:05;;;;;;;20.60;18.50;;;20.10;99.90;;;;;;5119433;27;20066;-68